Time;durP1;ratioP1;P1;durP2;ratioP2;P2;SDS_P1;SDS_P2;PMS_P1;PMS_P2;Temp;Humidity;BMP_temperature;BMP_pressure;BME280_temperature;BME280_humidity;BME280_pressure;Samples;Min_cycle;Max_cycle;Signal;HPM_P1;HPM_P2
2022/06/05 00:01:15;;;;;;;12.50;11.40;;;16.20;99.90;;;-141.84;72.35;18539.75;5051233;28;20222;-60
2022/06/05 00:03:56;;;;;;;12.55;11.35;;;16.10;99.90;;;-141.84;72.32;18543.81;5069933;28;20655;-60
2022/06/05 00:06:35;;;;;;;13.23;12.13;;;16.10;99.90;;;-141.84;72.58;18553.97;5070272;28;20314;-59
2022/06/05 00:09:17;;;;;;;14.18;12.88;;;16.10;99.90;;;-141.84;73.18;18537.72;5070458;28;20224;-60
2022/06/05 00:11:59;;;;;;;13.90;12.60;;;16.00;99.90;;;-141.84;72.83;18491.00;5070113;28;20259;-60
2022/06/05 00:14:27;;;;;;;13.43;12.15;;;16.00;99.90;;;-141.84;73.50;18484.91;5070373;28;20739;-59
2022/06/05 00:16:55;;;;;;;14.07;12.85;;;16.00;99.90;;;-141.84;73.69;18519.44;5070426;28;20259;-60
2022/06/05 00:19:23;;;;;;;13.60;12.40;;;15.90;99.90;;;-141.84;73.83;18509.28;5070143;28;20287;-59
2022/06/05 00:21:52;;;;;;;14.50;13.10;;;15.90;99.90;;;-141.84;72.22;18507.25;5070780;28;20254;-60
2022/06/05 00:24:21;;;;;;;13.77;12.48;;;16.00;99.90;;;-141.84;72.83;18535.69;5070247;28;20308;-60
2022/06/05 00:26:58;;;;;;;12.95;11.93;;;15.90;99.90;;;-141.84;73.66;18491.00;5070244;28;20480;-59
2022/06/05 00:29:46;;;;;;;13.60;12.38;;;15.90;99.90;;;-141.84;73.00;18509.28;5070056;28;20315;-60
2022/06/05 00:32:26;;;;;;;13.52;12.32;;;15.90;99.90;;;-141.84;73.37;18497.09;5070207;28;20225;-61
2022/06/05 00:34:54;;;;;;;11.57;10.68;;;15.90;99.90;;;-141.84;73.37;18501.16;5070042;28;20229;-60
2022/06/05 00:37:41;;;;;;;12.55;11.52;;;15.90;99.90;;;-141.84;72.95;18507.25;5070284;28;20235;-59
2022/06/05 00:40:43;;;;;;;11.75;10.75;;;15.80;99.90;;;-141.84;72.83;18521.47;5070285;28;20260;-61
2022/06/05 00:43:16;;;;;;;12.35;11.35;;;15.80;99.90;;;-141.84;72.49;18513.34;5070065;28;20200;-60
2022/06/05 00:45:46;;;;;;;12.27;11.27;;;15.80;99.90;;;-141.84;72.05;18517.41;5069735;28;20240;-61
2022/06/05 00:48:14;;;;;;;11.80;10.70;;;15.80;99.90;;;-141.84;73.11;18517.41;5069829;28;20246;-60
2022/06/05 00:50:45;;;;;;;11.93;10.90;;;15.80;99.90;;;-141.84;74.00;18482.88;5069641;28;20308;-61
2022/06/05 00:53:15;;;;;;;11.70;10.70;;;15.70;99.90;;;-141.84;73.73;18486.94;5069969;28;20320;-60
2022/06/05 00:55:49;;;;;;;10.63;9.70;;;15.60;99.90;;;-141.84;74.73;18458.50;5069574;28;20236;-59
2022/06/05 00:58:20;;;;;;;11.02;10.05;;;15.50;99.90;;;-141.84;74.40;18464.59;5069654;28;20755;-59
2022/06/05 01:00:52;;;;;;;11.75;10.85;;;15.50;99.90;;;-141.84;75.08;18464.59;5069920;28;20330;-59
2022/06/05 01:03:22;;;;;;;11.10;10.20;;;15.40;99.90;;;-141.84;74.87;18474.75;5069628;28;20263;-60
2022/06/05 01:05:52;;;;;;;11.38;10.27;;;15.40;99.90;;;-141.84;74.71;18444.28;5069804;28;20232;-61
2022/06/05 01:08:20;;;;;;;12.20;11.00;;;15.40;99.90;;;-141.84;75.10;18468.66;5073013;28;20240;-60
2022/06/05 01:11:02;;;;;;;11.52;10.63;;;15.30;99.90;;;-141.84;74.33;18468.66;5073687;28;20220;-61
2022/06/05 01:13:49;;;;;;;11.55;10.55;;;15.40;99.90;;;-141.84;73.85;18450.38;5074120;28;20185;-60
2022/06/05 01:16:27;;;;;;;11.38;10.35;;;15.40;99.90;;;-141.84;74.03;18456.47;5074513;28;20181;-60
2022/06/05 01:19:16;;;;;;;10.95;9.95;;;15.40;99.90;;;-141.84;74.43;18450.38;5073939;28;20208;-60
2022/06/05 01:22:42;;;;;;;11.73;10.73;;;15.30;99.90;;;-141.84;75.28;18468.66;5073353;28;20221;-61
2022/06/05 01:25:44;;;;;;;12.10;10.93;;;15.30;99.90;;;-141.84;75.59;18436.16;5073795;28;20279;-61
2022/06/05 01:28:19;;;;;;;11.65;10.65;;;15.20;99.90;;;-141.84;74.87;18444.28;5073622;28;20445;-60
2022/06/05 01:30:59;;;;;;;11.13;10.20;;;15.20;99.90;;;-141.84;75.36;18434.13;5073406;28;20227;-60
2022/06/05 01:33:30;;;;;;;11.65;10.75;;;15.20;99.90;;;-141.84;75.96;18417.84;5072950;28;20228;-60
2022/06/05 01:36:09;;;;;;;11.38;10.02;;;15.10;99.90;;;-141.84;76.02;18397.53;5073406;28;20228;-60
2022/06/05 01:38:48;;;;;;;11.90;10.68;;;15.10;99.90;;;-141.84;76.57;18423.94;5073357;28;20228;-61
2022/06/05 01:41:25;;;;;;;11.38;10.38;;;15.00;99.90;;;-141.84;76.98;18389.41;5072858;28;20234;-60
2022/06/05 01:43:58;;;;;;;11.13;10.13;;;15.00;99.90;;;-141.84;75.21;18423.94;5073341;28;20600;-61
2022/06/05 01:46:34;;;;;;;11.40;10.37;;;15.10;99.90;;;-141.84;76.23;18393.47;5073001;28;20197;-58
2022/06/05 01:49:15;;;;;;;11.68;10.60;;;15.10;99.90;;;-141.84;76.87;18371.13;5073702;28;20196;-60
2022/06/05 01:51:54;;;;;;;11.15;10.05;;;15.00;99.90;;;-141.84;76.60;18409.72;5072727;28;20307;-60
2022/06/05 01:54:30;;;;;;;11.20;10.07;;;15.00;99.90;;;-141.84;76.74;18399.56;5072805;28;20311;-61
2022/06/05 01:57:06;;;;;;;11.17;10.17;;;15.00;99.90;;;-141.84;77.37;18358.94;5072676;28;20224;-60
2022/06/05 01:59:43;;;;;;;11.55;10.43;;;14.90;99.90;;;-141.84;77.05;18389.41;5072565;28;20228;-59
2022/06/05 02:02:18;;;;;;;11.32;10.32;;;14.90;99.90;;;-141.84;76.59;18403.63;5072850;28;20323;-60
2022/06/05 02:04:53;;;;;;;11.32;10.23;;;14.90;99.90;;;-141.84;77.01;18393.47;5072875;28;20224;-59
2022/06/05 02:07:30;;;;;;;11.30;10.30;;;14.80;99.90;;;-141.84;77.42;18373.16;5072987;28;20407;-60
2022/06/05 02:10:06;;;;;;;10.83;9.83;;;14.80;99.90;;;-141.84;78.74;18328.47;5073072;28;20201;-60
2022/06/05 02:12:37;;;;;;;11.15;10.15;;;14.70;99.90;;;-141.84;78.22;18340.66;5072279;28;20220;-60
2022/06/05 02:15:07;;;;;;;11.07;10.07;;;14.70;99.90;;;-141.84;79.53;18326.44;5072564;28;20605;-60
2022/06/05 02:17:38;;;;;;;10.93;9.82;;;14.60;99.90;;;-141.84;79.47;18356.91;5071698;28;20974;-59
2022/06/05 02:20:10;;;;;;;10.60;9.60;;;14.60;99.90;;;-141.84;78.79;18365.03;5072308;28;20303;-60
2022/06/05 02:22:44;;;;;;;10.95;9.93;;;14.60;99.90;;;-141.84;78.62;18344.72;5072188;28;20211;-61
2022/06/05 02:25:20;;;;;;;11.97;10.20;;;14.60;99.90;;;-141.84;79.24;18332.53;5072815;28;20652;-60
2022/06/05 02:27:50;;;;;;;11.07;9.97;;;14.70;99.90;;;-141.84;79.03;18328.47;5072206;28;20251;-61
2022/06/05 02:30:19;;;;;;;11.05;10.05;;;14.70;99.90;;;-141.84;79.67;18308.16;5072167;28;20304;-60
2022/06/05 02:33:04;;;;;;;10.48;9.45;;;14.60;99.90;;;-141.84;79.99;18293.94;5072035;28;20228;-60
2022/06/05 02:35:48;;;;;;;11.68;10.48;;;14.60;99.90;;;-141.84;79.39;18316.28;5072036;28;20224;-60
2022/06/05 02:38:36;;;;;;;10.43;9.43;;;14.60;99.90;;;-141.84;79.77;18277.69;5072003;28;20720;-60
2022/06/05 02:41:13;;;;;;;11.60;10.57;;;14.50;99.90;;;-141.84;79.33;18306.13;5071842;28;20243;-61
2022/06/05 02:46:51;;;;;;;10.27;9.37;;;14.60;99.90;;;-141.84;77.88;18365.03;5071482;28;20279;-60
2022/06/05 02:49:28;;;;;;;10.75;9.73;;;14.60;99.90;;;-141.84;78.57;18332.53;5072509;28;20184;-62
2022/06/05 02:52:02;;;;;;;10.60;9.70;;;14.60;99.90;;;-141.84;79.42;18318.31;5072114;28;20216;-60
2022/06/05 02:54:32;;;;;;;10.93;9.90;;;14.60;99.90;;;-141.84;79.63;18316.28;5071722;28;20307;-60
2022/06/05 02:57:00;;;;;;;10.50;9.60;;;14.50;99.90;;;-141.84;79.63;18275.66;5071582;28;20672;-61
2022/06/05 02:59:30;;;;;;;10.07;9.17;;;14.50;99.90;;;-141.84;80.28;18289.88;5071601;28;20229;-62
2022/06/05 03:04:44;;;;;;;11.43;10.23;;;14.40;99.90;;;-141.84;80.97;18259.41;5071572;28;20408;-60
2022/06/05 03:07:12;;;;;;;10.73;9.63;;;14.30;99.90;;;-141.84;81.01;18263.47;5072091;28;20205;-61
2022/06/05 03:09:40;;;;;;;10.53;9.23;;;14.30;99.90;;;-141.84;80.93;18285.81;5071486;28;20232;-60
2022/06/05 03:12:09;;;;;;;10.50;9.33;;;14.30;99.90;;;-141.84;80.80;18283.78;5071063;28;20664;-59
2022/06/05 03:14:38;;;;;;;10.50;9.60;;;14.30;99.90;;;-141.84;80.67;18269.56;5071272;28;20232;-60
2022/06/05 03:17:06;;;;;;;10.23;9.27;;;14.30;99.90;;;-141.84;81.05;18249.25;5071323;28;20228;-61
2022/06/05 03:19:34;;;;;;;10.50;9.50;;;14.30;99.90;;;-141.84;79.49;18306.13;5071065;28;20243;-60
2022/06/05 03:22:03;;;;;;;9.25;8.45;;;14.40;99.90;;;-141.84;80.13;18263.47;5071744;28;20226;-60
2022/06/05 03:24:31;;;;;;;10.07;9.20;;;14.30;99.90;;;-141.84;79.89;18269.56;5071106;28;20229;-60
2022/06/05 03:27:00;;;;;;;9.67;8.77;;;14.40;99.90;;;-141.84;79.30;18277.69;5071067;28;20229;-60
2022/06/05 03:29:28;;;;;;;10.80;9.80;;;14.40;99.90;;;-141.84;79.46;18289.88;5070319;28;20311;-59
2022/06/05 03:31:57;;;;;;;9.83;8.73;;;14.40;99.90;;;-141.84;79.29;18306.13;5071019;28;20573;-59
2022/06/05 03:34:26;;;;;;;10.27;9.27;;;14.40;99.90;;;-141.84;79.00;18336.59;5071040;28;20228;-59
2022/06/05 03:36:54;;;;;;;9.37;8.57;;;14.50;99.90;;;-141.84;79.08;18259.41;5071537;28;20288;-59
2022/06/05 03:39:22;;;;;;;9.43;8.60;;;14.40;99.90;;;-141.84;78.36;18304.09;5071052;28;20722;-59
2022/06/05 03:41:50;;;;;;;9.77;8.77;;;14.50;99.90;;;-141.84;79.60;18306.13;5070447;28;20232;-59
2022/06/05 03:44:19;;;;;;;9.73;8.83;;;14.40;99.90;;;-141.84;80.44;18291.91;5071116;28;20220;-60
2022/06/05 03:46:47;;;;;;;9.20;8.40;;;14.40;99.90;;;-141.84;78.50;18298.00;5070726;28;20572;-60
2022/06/05 03:49:16;;;;;;;9.45;8.63;;;14.40;99.90;;;-141.84;78.48;18304.09;5071326;28;20283;-61
2022/06/05 03:51:47;;;;;;;9.40;8.60;;;14.50;99.90;;;-141.84;77.40;18314.25;5070344;28;20315;-61
2022/06/05 03:54:15;;;;;;;9.27;8.37;;;14.50;99.90;;;-141.84;75.90;18377.22;5070686;28;20311;-60
2022/06/05 03:56:43;;;;;;;10.35;8.45;;;14.70;99.90;;;-141.84;76.87;18340.66;5070496;28;20307;-60
2022/06/05 03:59:12;;;;;;;9.47;8.57;;;14.70;99.90;;;-141.84;76.46;18352.84;5070441;28;20341;-60
2022/06/05 04:01:40;;;;;;;9.15;8.30;;;14.70;99.90;;;-141.84;76.14;18344.72;5070670;28;20205;-59
2022/06/05 04:04:08;;;;;;;9.77;8.77;;;14.70;99.90;;;-141.84;75.84;18338.63;5070865;28;20262;-59
2022/06/05 04:06:38;;;;;;;8.40;7.70;;;14.70;99.90;;;-141.84;76.24;18350.81;5070514;28;20224;-59
2022/06/05 04:09:08;;;;;;;8.83;8.03;;;14.70;99.90;;;-141.84;74.90;18369.09;5070552;28;20327;-61
2022/06/05 04:11:39;;;;;;;8.50;7.70;;;14.80;99.90;;;-141.84;74.50;18360.97;5070654;28;20307;-59
2022/06/05 04:14:09;;;;;;;8.55;7.85;;;14.80;99.90;;;-141.84;74.06;18407.69;5070461;28;20224;-60
2022/06/05 04:16:41;;;;;;;8.47;7.67;;;14.90;99.90;;;-141.84;74.01;18387.38;5070688;28;20191;-60
2022/06/05 04:19:10;;;;;;;8.43;7.63;;;15.00;99.90;;;-141.84;73.61;18387.38;5070726;28;20188;-60
2022/06/05 04:21:46;;;;;;;8.93;8.03;;;15.00;99.90;;;-141.84;73.48;18391.44;5070166;28;20228;-60
2022/06/05 04:24:15;;;;;;;12.53;7.83;;;15.00;99.90;;;-141.84;73.22;18403.63;5070141;28;20649;-60
2022/06/05 04:26:45;;;;;;;8.20;7.45;;;15.00;99.90;;;-141.84;72.43;18413.78;5070123;28;20432;-61
2022/06/05 04:29:13;;;;;;;8.73;7.93;;;15.10;99.90;;;-141.84;73.06;18415.81;5070523;28;20224;-60
2022/06/05 04:31:47;;;;;;;9.02;7.72;;;15.10;99.90;;;-141.84;72.22;18407.69;5070293;28;20335;-62
2022/06/05 04:34:19;;;;;;;9.18;7.18;;;15.20;99.90;;;-141.84;71.40;18468.66;5070393;28;20189;-61
2022/06/05 04:36:49;;;;;;;8.75;7.90;;;15.30;99.90;;;-141.84;70.10;18464.59;5070446;28;20283;-60
2022/06/05 04:39:18;;;;;;;10.93;7.47;;;15.40;99.90;;;-141.84;69.71;18495.06;5051040;28;20665;-60
2022/06/05 04:41:47;;;;;;;7.72;7.03;;;15.50;99.90;;;-141.84;70.23;18476.78;5049367;28;20689;-60
2022/06/05 04:44:18;;;;;;;8.30;7.47;;;15.60;99.90;;;-141.84;69.59;18476.78;5049656;28;20786;-61
2022/06/05 04:46:47;;;;;;;8.25;7.45;;;15.70;99.90;;;-141.84;68.31;18515.38;5053416;28;20647;-61
2022/06/05 04:49:15;;;;;;;7.50;6.80;;;15.80;99.90;;;-141.84;67.24;18578.38;5070338;28;20247;-61
2022/06/05 04:51:44;;;;;;;7.45;6.80;;;16.20;99.90;;;-141.84;58.06;18907.50;5069747;28;20234;-61
2022/06/05 04:54:16;;;;;;;6.57;5.93;;;17.40;99.90;;;-141.84;52.47;19151.34;5069836;28;20230;-60
2022/06/05 04:56:45;;;;;;;8.60;6.18;;;18.90;99.90;;;-141.84;45.29;19533.38;5069842;28;20303;-60
2022/06/05 04:59:15;;;;;;;6.38;5.88;;;20.50;99.90;;;-141.84;42.59;19756.94;5069765;28;20308;-60
2022/06/05 05:01:43;;;;;;;5.22;4.82;;;21.70;99.90;;;-141.84;41.54;19937.81;5069772;28;20306;-61
2022/06/05 05:04:15;;;;;;;6.15;5.57;;;22.60;99.90;;;-141.84;38.32;20218.31;5069779;28;20278;-59
2022/06/05 05:06:45;;;;;;;6.28;5.50;;;23.80;99.90;;;-141.84;37.33;20273.19;5069850;28;20235;-61
2022/06/05 05:09:15;;;;;;;6.00;5.50;;;24.30;99.90;;;-141.84;37.54;20287.41;5069918;28;20304;-61
2022/06/05 05:11:44;;;;;;;6.32;5.72;;;24.50;99.90;;;-141.84;36.62;20431.72;5069675;28;20312;-59
2022/06/05 05:14:13;;;;;;;6.40;5.78;;;24.80;99.90;;;-141.84;36.08;20452.06;5069731;28;20311;-62
2022/06/05 05:16:41;;;;;;;6.40;5.90;;;25.10;99.90;;;-141.84;36.02;20452.06;5069789;28;20731;-59
2022/06/05 05:19:10;;;;;;;7.07;5.22;;;24.90;99.90;;;-141.84;35.81;20488.63;5070291;28;20241;-60
2022/06/05 05:21:39;;;;;;;6.18;5.32;;;25.00;99.90;;;-141.84;35.96;20574.00;5069795;28;20315;-61
2022/06/05 05:24:08;;;;;;;6.43;5.82;;;25.20;99.90;;;-141.84;35.26;20590.28;5069574;28;20308;-61
2022/06/05 05:26:37;;;;;;;5.63;5.13;;;25.30;99.90;;;-141.84;35.68;20580.13;5069905;28;20228;-60
2022/06/05 05:29:07;;;;;;;5.85;5.30;;;25.50;99.90;;;-141.84;35.92;20541.50;5069557;28;20227;-61
2022/06/05 05:31:39;;;;;;;6.22;5.43;;;25.40;99.90;;;-141.84;35.81;20539.47;5069458;28;20205;-59
2022/06/05 05:34:09;;;;;;;6.00;5.50;;;25.30;99.90;;;-141.84;36.45;20476.44;5069890;28;20250;-60
2022/06/05 05:36:38;;;;;;;6.35;5.85;;;24.70;99.90;;;-141.84;37.69;20291.47;5069681;28;20242;-60
2022/06/05 05:42:06;;;;;;;6.93;6.32;;;23.50;99.90;;;-141.84;42.92;19830.09;5049332;28;20229;-60
2022/06/05 05:44:39;;;;;;;6.95;6.38;;;22.80;99.90;;;-141.84;44.96;19691.91;5065821;28;20321;-60
2022/06/05 05:47:11;;;;;;;8.05;7.25;;;22.40;99.90;;;-141.84;46.12;19618.75;5069684;28;20246;-61
2022/06/05 05:49:40;;;;;;;8.02;7.22;;;21.80;99.90;;;-141.84;47.72;19533.38;5069336;28;20223;-60
2022/06/05 05:52:09;;;;;;;7.57;6.90;;;21.60;99.90;;;-141.84;48.42;19466.31;5069705;28;20200;-60
2022/06/05 05:54:39;;;;;;;8.32;7.55;;;21.40;99.90;;;-141.84;49.17;19443.97;5072207;28;20328;-59
2022/06/05 05:57:09;;;;;;;7.25;6.55;;;21.10;99.90;;;-141.84;50.31;19376.91;5072785;28;20224;-60
2022/06/05 05:59:37;;;;;;;8.13;7.32;;;21.00;99.90;;;-141.84;50.99;19350.50;5072697;28;20225;-60
2022/06/05 06:02:11;;;;;;;8.73;8.00;;;20.80;99.90;;;-141.84;50.94;19317.97;5073050;28;20315;-61
2022/06/05 06:04:40;;;;;;;8.15;7.45;;;20.70;99.90;;;-141.84;52.12;19277.34;5072565;28;20205;-59
2022/06/05 06:07:08;;;;;;;8.23;7.40;;;20.50;99.90;;;-141.84;52.93;19230.59;5073350;28;20200;-59
2022/06/05 06:09:37;;;;;;;9.02;8.05;;;20.40;99.90;;;-141.84;53.00;19246.84;5072545;28;20239;-60
2022/06/05 06:12:08;;;;;;;8.30;7.55;;;20.50;99.90;;;-141.84;53.04;19214.34;5072691;28;20224;-61
2022/06/05 06:14:36;;;;;;;8.50;7.70;;;20.40;99.90;;;-141.84;52.75;19265.13;5072406;28;20237;-60
2022/06/05 06:17:05;;;;;;;8.98;8.18;;;20.50;99.90;;;-141.84;52.50;19311.88;5072822;28;20224;-60
2022/06/05 06:19:34;;;;;;;9.00;8.20;;;20.50;99.90;;;-141.84;52.69;19265.13;5072146;28;20255;-60
2022/06/05 06:22:02;;;;;;;9.65;8.80;;;20.60;99.90;;;-141.84;52.50;19273.28;5072892;28;20200;-59
2022/06/05 06:24:30;;;;;;;8.85;8.15;;;20.60;99.90;;;-141.84;53.16;19244.81;5072178;28;20231;-60
2022/06/05 06:26:59;;;;;;;8.63;7.88;;;20.60;99.90;;;-141.84;53.85;19230.59;5072408;28;20243;-61
2022/06/05 06:29:28;;;;;;;8.68;7.90;;;20.60;99.90;;;-141.84;53.01;19275.31;5072565;28;20227;-61
2022/06/05 06:31:56;;;;;;;9.63;8.43;;;20.70;99.90;;;-141.84;52.78;19279.38;5071998;28;20303;-60
2022/06/05 06:34:25;;;;;;;8.70;7.80;;;20.80;99.90;;;-141.84;52.87;19317.97;5072024;28;20239;-60
2022/06/05 06:36:53;;;;;;;9.18;8.38;;;20.90;99.90;;;-141.84;52.70;19303.75;5058051;28;20729;-60
2022/06/05 06:39:22;;;;;;;8.48;7.78;;;21.00;99.90;;;-141.84;52.69;19309.84;5072045;28;20220;-61
2022/06/05 06:41:51;;;;;;;8.77;8.07;;;21.00;99.90;;;-141.84;53.45;19309.84;5072733;28;20228;-62
2022/06/05 06:44:19;;;;;;;9.27;8.48;;;21.20;99.90;;;-141.84;52.68;19322.03;5072966;28;20293;-61
2022/06/05 06:46:49;;;;;;;9.50;8.70;;;21.20;99.90;;;-141.84;53.15;19293.59;5072927;28;20220;-60
2022/06/05 06:49:17;;;;;;;10.20;9.20;;;21.20;99.90;;;-141.84;53.43;19285.47;5073329;28;20208;-59
2022/06/05 06:51:45;;;;;;;9.98;8.80;;;21.20;99.90;;;-141.84;53.46;19269.22;5072665;28;20311;-60
2022/06/05 06:54:13;;;;;;;9.77;8.90;;;21.20;99.90;;;-141.84;53.01;19293.59;5072884;28;20240;-59
2022/06/05 06:56:44;;;;;;;11.02;9.52;;;21.10;99.90;;;-141.84;53.82;19269.22;5072554;28;20235;-59
2022/06/05 06:59:12;;;;;;;9.40;8.50;;;21.10;99.90;;;-141.84;54.33;19269.22;5072636;28;20248;-61
2022/06/05 07:01:40;;;;;;;11.73;10.73;;;21.20;99.90;;;-141.84;53.25;19269.22;5071468;28;20288;-60
2022/06/05 07:04:10;;;;;;;10.98;9.98;;;21.30;99.90;;;-141.84;53.79;19291.56;5071623;28;20224;-62
2022/06/05 07:06:38;;;;;;;10.35;9.45;;;21.30;99.90;;;-141.84;53.86;19291.56;5071171;28;20231;-61
2022/06/05 07:09:06;;;;;;;10.15;9.35;;;21.30;99.90;;;-141.84;54.93;19248.88;5071204;28;20311;-60
2022/06/05 07:11:35;;;;;;;12.68;10.82;;;21.50;99.90;;;-141.84;52.84;19309.84;5070983;28;20313;-60
2022/06/05 07:14:03;;;;;;;10.80;9.82;;;21.50;99.90;;;-141.84;53.73;19303.75;5071293;28;20254;-61
2022/06/05 07:16:31;;;;;;;10.98;9.93;;;21.50;99.90;;;-141.84;53.78;19305.78;5070863;28;20672;-61
2022/06/05 07:18:59;;;;;;;10.60;9.60;;;21.50;99.90;;;-141.84;52.89;19334.22;5071750;28;20205;-60
2022/06/05 07:21:29;;;;;;;10.32;9.45;;;21.60;99.90;;;-141.84;53.27;19328.13;5070976;28;20617;-61
2022/06/05 07:23:59;;;;;;;11.32;10.43;;;21.60;99.90;;;-141.84;53.61;19301.72;5070756;28;20227;-61
2022/06/05 07:26:32;;;;;;;11.57;10.68;;;21.60;99.90;;;-141.84;53.21;19299.69;5070794;28;20248;-62
2022/06/05 07:29:02;;;;;;;12.13;10.98;;;21.70;99.90;;;-141.84;54.90;19252.94;5071621;28;20311;-60
2022/06/05 07:31:32;;;;;;;11.50;10.50;;;21.60;99.90;;;-141.84;53.92;19285.47;5070174;28;20232;-61
2022/06/05 07:34:02;;;;;;;11.07;10.18;;;21.60;99.90;;;-141.84;54.65;19248.88;5069209;28;20236;-61
2022/06/05 07:36:32;;;;;;;11.80;10.77;;;21.50;99.90;;;-141.84;55.36;19275.31;5070617;28;20248;-61
2022/06/05 07:39:02;;;;;;;11.35;10.45;;;21.60;99.90;;;-141.84;54.18;19301.72;5070803;28;20606;-60
2022/06/05 07:41:37;;;;;;;10.68;9.88;;;21.80;99.90;;;-141.84;54.12;19313.91;5070281;28;20312;-60
2022/06/05 07:44:07;;;;;;;12.00;10.82;;;21.90;99.90;;;-141.84;54.36;19297.66;5070660;28;20648;-61
2022/06/05 07:46:37;;;;;;;11.63;10.73;;;22.00;99.90;;;-141.84;52.89;19358.63;5070529;28;20231;-61
2022/06/05 07:49:06;;;;;;;14.65;11.57;;;22.00;99.90;;;-141.84;52.51;19391.13;5071083;28;20200;-61
2022/06/05 07:54:30;;;;;;;12.32;11.32;;;22.10;99.90;;;-141.84;52.62;19378.94;5070518;28;20708;-59
2022/06/05 07:57:02;;;;;;;12.23;11.05;;;22.20;99.90;;;-141.84;52.30;19366.75;5070623;28;20274;-60
2022/06/05 07:59:34;;;;;;;12.32;11.32;;;22.20;99.90;;;-141.84;52.82;19350.50;5054627;28;20312;-61
2022/06/05 08:02:07;;;;;;;12.00;10.82;;;22.20;99.90;;;-141.84;52.84;19366.75;5052486;28;20229;-61
2022/06/05 08:04:36;;;;;;;11.60;10.70;;;22.10;99.90;;;-141.84;51.92;19338.28;5069841;28;20710;-61
2022/06/05 08:07:10;;;;;;;11.15;10.25;;;22.10;99.90;;;-141.84;52.57;19356.59;5066808;28;20201;-59
2022/06/05 08:09:41;;;;;;;10.52;9.73;;;22.10;99.90;;;-141.84;52.18;19378.94;5067553;28;20283;-59
2022/06/05 08:12:12;;;;;;;10.93;10.02;;;22.20;99.90;;;-141.84;51.86;19417.56;5069386;28;20310;-60
2022/06/05 08:14:43;;;;;;;10.73;9.93;;;22.30;99.90;;;-141.84;51.70;19403.31;5067527;28;20219;-61
2022/06/05 08:17:17;;;;;;;11.35;10.43;;;22.40;99.90;;;-141.84;51.24;19437.88;5069480;28;20250;-60
2022/06/05 08:19:46;;;;;;;11.43;10.48;;;22.40;99.90;;;-141.84;50.62;19460.22;5070187;28;20232;-60
2022/06/05 08:22:21;;;;;;;11.85;10.85;;;22.60;99.90;;;-141.84;51.24;19468.34;5070690;28;20196;-60
2022/06/05 08:24:52;;;;;;;11.13;10.23;;;22.60;99.90;;;-141.84;50.80;19411.44;5069512;28;20218;-61
2022/06/05 08:27:25;;;;;;;11.10;10.02;;;22.60;99.90;;;-141.84;50.97;19431.78;5064506;28;20599;-60
2022/06/05 08:29:56;;;;;;;12.57;11.38;;;22.60;99.90;;;-141.84;50.10;19521.19;5065991;28;20217;-61
2022/06/05 08:32:26;;;;;;;10.73;9.48;;;22.70;99.90;;;-141.84;49.79;19488.69;5069661;28;20274;-61
2022/06/05 08:34:56;;;;;;;10.77;9.88;;;22.80;99.90;;;-141.84;49.21;19529.31;5069792;28;20247;-59
2022/06/05 08:43:28;;;;;;;10.85;9.90;;;23.10;99.90;;;-141.84;48.01;19576.06;5066995;28;20217;-62
2022/06/05 08:46:08;;;;;;;9.85;9.05;;;23.20;99.90;;;-141.84;47.32;19606.53;5070016;28;20263;-59
2022/06/05 08:48:43;;;;;;;9.13;8.43;;;23.30;99.90;;;-141.84;47.49;19635.00;5062622;28;20221;-61
2022/06/05 08:51:34;;;;;;;9.05;8.35;;;23.50;99.90;;;-141.84;47.81;19639.06;5069777;28;20605;-61
2022/06/05 08:54:11;;;;;;;10.07;9.18;;;23.50;99.90;;;-141.84;46.98;19687.84;5069601;28;20312;-61
2022/06/05 08:56:44;;;;;;;9.52;8.80;;;23.70;99.90;;;-141.84;46.53;19720.34;5064335;28;20216;-61
2022/06/05 08:59:21;;;;;;;9.10;8.25;;;23.80;99.90;;;-141.84;46.07;19728.47;5069525;28;20232;-62
2022/06/05 09:01:59;;;;;;;8.98;8.18;;;23.90;99.90;;;-141.84;44.59;19830.09;5064088;28;20220;-61
2022/06/05 09:04:49;;;;;;;8.73;8.13;;;24.20;99.90;;;-141.84;43.92;19911.41;5069338;28;20350;-61
2022/06/05 09:07:25;;;;;;;8.95;8.20;;;24.60;99.90;;;-141.84;44.19;19895.13;5064893;28;20567;-61
2022/06/05 09:10:02;;;;;;;9.07;8.38;;;24.60;99.90;;;-141.84;43.88;19897.16;5063758;28;20283;-61
2022/06/05 09:12:41;;;;;;;9.45;8.65;;;24.70;99.90;;;-141.84;44.04;19874.81;5068908;28;20262;-60
2022/06/05 09:15:27;;;;;;;8.82;8.13;;;24.70;99.90;;;-141.84;45.16;19834.16;5069225;28;20240;-60
2022/06/05 09:17:57;;;;;;;8.93;8.23;;;24.70;99.90;;;-141.84;44.93;19842.28;5069675;28;20401;-60
2022/06/05 09:20:42;;;;;;;9.40;8.70;;;24.70;99.90;;;-141.84;44.24;19887.00;5068591;28;20308;-62
2022/06/05 09:23:23;;;;;;;8.13;7.53;;;24.80;99.90;;;-141.84;44.21;19872.78;5068823;28;20667;-61
2022/06/05 09:26:04;;;;;;;9.07;8.35;;;24.80;99.90;;;-141.84;44.39;19846.34;5064708;28;20763;-62
2022/06/05 09:29:03;;;;;;;9.18;8.27;;;24.80;99.90;;;-141.84;44.62;19876.84;5069273;28;20211;-60
2022/06/05 09:32:20;;;;;;;9.35;8.65;;;24.80;99.90;;;-141.84;45.42;19828.06;5073353;28;20281;-61
2022/06/05 09:34:54;;;;;;;8.75;8.15;;;24.70;99.90;;;-141.84;44.59;19856.53;5072688;28;20659;-61
2022/06/05 09:37:29;;;;;;;9.35;8.23;;;24.70;99.90;;;-141.84;44.88;19866.69;5073144;28;20199;-55
2022/06/05 09:40:12;;;;;;;9.32;8.52;;;24.70;99.90;;;-141.84;45.10;19801.66;5073038;28;20295;-57
2022/06/05 09:43:17;;;;;;;9.65;8.77;;;24.70;99.90;;;-141.84;44.71;19838.22;5063578;28;20222;-55
2022/06/05 09:46:09;;;;;;;9.88;9.18;;;24.60;99.90;;;-141.84;45.38;19781.31;5066679;28;20231;-58
2022/06/05 09:48:53;;;;;;;9.40;8.60;;;24.50;99.90;;;-141.84;45.78;19775.22;5072625;28;20212;-58
2022/06/05 09:51:22;;;;;;;9.20;8.50;;;24.40;99.90;;;-141.84;46.73;19752.88;5072733;28;20574;-57
2022/06/05 09:53:58;;;;;;;8.40;7.80;;;24.30;99.90;;;-141.84;46.50;19793.50;5072561;28;20236;-54
2022/06/05 09:59:38;;;;;;;9.98;9.27;;;24.40;99.90;;;-141.84;46.31;19779.28;5019778;28;20541;-55
2022/06/05 10:02:09;;;;;;;10.55;9.60;;;24.40;99.90;;;-141.84;46.41;19763.03;5072702;28;20258;-55
2022/06/05 10:04:39;;;;;;;10.23;9.40;;;24.30;99.90;;;-141.84;46.50;19746.78;5072285;28;20177;-56
2022/06/05 10:07:33;;;;;;;9.75;8.93;;;24.40;99.90;;;-141.84;47.07;19765.06;5068350;28;20515;-56
2022/06/05 10:10:07;;;;;;;9.32;8.73;;;24.30;99.90;;;-141.84;46.41;19789.44;5073164;28;20201;-56
2022/06/05 10:12:47;;;;;;;10.38;9.57;;;24.50;99.90;;;-141.84;46.21;19811.81;5072184;28;20311;-56
2022/06/05 10:15:25;;;;;;;9.65;8.85;;;24.60;99.90;;;-141.84;46.26;19795.53;5072154;28;20307;-56
2022/06/05 10:17:57;;;;;;;9.98;9.27;;;24.80;99.90;;;-141.84;45.75;19874.81;5072555;28;20304;-58
2022/06/05 10:20:54;;;;;;;10.25;9.45;;;24.90;99.90;;;-141.84;45.15;19913.44;5070795;28;20248;-56
2022/06/05 10:23:46;;;;;;;9.82;9.02;;;25.10;99.90;;;-141.84;45.52;19864.66;5072260;28;20228;-56
2022/06/05 10:26:30;;;;;;;9.80;9.00;;;25.10;99.90;;;-141.84;45.53;19852.44;5066046;28;20240;-57
2022/06/05 10:29:18;;;;;;;10.00;9.15;;;25.20;99.90;;;-141.84;45.00;19895.13;5058152;28;20605;-55
2022/06/05 10:32:02;;;;;;;9.68;8.98;;;25.20;99.90;;;-141.84;44.86;19891.06;5072270;28;20224;-58
2022/06/05 10:34:44;;;;;;;9.63;8.82;;;25.10;99.90;;;-141.84;45.57;19826.03;5068042;28;20193;-58
2022/06/05 10:37:22;;;;;;;9.98;9.27;;;25.00;99.90;;;-141.84;45.88;19826.03;5070022;28;20538;-56
2022/06/05 10:40:06;;;;;;;9.75;8.95;;;25.10;99.90;;;-141.84;45.48;19874.81;5071764;28;20668;-56
2022/06/05 10:42:45;;;;;;;9.73;9.02;;;25.10;99.90;;;-141.84;45.26;19838.22;5071188;28;20247;-55
2022/06/05 10:45:31;;;;;;;9.70;9.00;;;25.10;99.90;;;-141.84;45.82;19848.38;5070607;28;20232;-57
2022/06/05 10:48:19;;;;;;;9.45;8.75;;;25.10;99.90;;;-141.84;45.95;19862.63;5068699;28;20252;-56